sensor_id;sensor_type;location;lat;lon;timestamp;temperature;humidity
47604;DHT22;33326;51.116;6.900;2022-10-17T00:02:55;17.70;99.90
47604;DHT22;33326;51.116;6.900;2022-10-17T00:07:57;17.70;99.90
47604;DHT22;33326;51.116;6.900;2022-10-17T00:12:59;17.70;99.90
47604;DHT22;33326;51.116;6.900;2022-10-17T00:18:02;17.70;99.90
47604;DHT22;33326;51.116;6.900;2022-10-17T00:23:04;17.80;99.90
47604;DHT22;33326;51.116;6.900;2022-10-17T00:28:08;17.80;99.90
47604;DHT22;33326;51.116;6.900;2022-10-17T00:33:11;17.80;99.90
47604;DHT22;33326;51.116;6.900;2022-10-17T00:38:13;17.80;99.90
47604;DHT22;33326;51.116;6.900;2022-10-17T00:43:16;17.70;99.90
47604;DHT22;33326;51.116;6.900;2022-10-17T00:48:20;17.70;99.90
47604;DHT22;33326;51.116;6.900;2022-10-17T00:53:23;17.80;99.90
47604;DHT22;33326;51.116;6.900;2022-10-17T00:58:25;17.80;99.90
47604;DHT22;33326;51.116;6.900;2022-10-17T01:03:29;17.80;99.90
47604;DHT22;33326;51.116;6.900;2022-10-17T01:08:31;17.70;99.90
47604;DHT22;33326;51.116;6.900;2022-10-17T01:13:36;17.70;99.90
47604;DHT22;33326;51.116;6.900;2022-10-17T01:19:02;17.70;99.90
47604;DHT22;33326;51.116;6.900;2022-10-17T01:25:27;17.70;99.90
47604;DHT22;33326;51.116;6.900;2022-10-17T01:30:57;17.70;99.90
47604;DHT22;33326;51.116;6.900;2022-10-17T01:36:45;17.60;99.90
47604;DHT22;33326;51.116;6.900;2022-10-17T01:41:51;17.60;99.90
47604;DHT22;33326;51.116;6.900;2022-10-17T01:47:36;17.60;99.90
47604;DHT22;33326;51.116;6.900;2022-10-17T01:52:52;17.60;99.90
47604;DHT22;33326;51.116;6.900;2022-10-17T01:58:09;17.60;99.90
47604;DHT22;33326;51.116;6.900;2022-10-17T02:03:17;17.50;99.90
47604;DHT22;33326;51.116;6.900;2022-10-17T02:08:28;17.60;99.90
47604;DHT22;33326;51.116;6.900;2022-10-17T02:13:43;17.50;99.90
47604;DHT22;33326;51.116;6.900;2022-10-17T02:24:21;17.50;99.90
47604;DHT22;33326;51.116;6.900;2022-10-17T02:29:28;17.60;99.90
47604;DHT22;33326;51.116;6.900;2022-10-17T02:34:36;17.50;99.90
47604;DHT22;33326;51.116;6.900;2022-10-17T02:39:41;17.50;99.90
47604;DHT22;33326;51.116;6.900;2022-10-17T02:44:46;17.50;99.90
47604;DHT22;33326;51.116;6.900;2022-10-17T02:49:52;17.50;99.90
47604;DHT22;33326;51.116;6.900;2022-10-17T02:55:00;17.50;99.90
47604;DHT22;33326;51.116;6.900;2022-10-17T03:00:08;17.50;99.90
47604;DHT22;33326;51.116;6.900;2022-10-17T03:05:19;17.50;99.90
47604;DHT22;33326;51.116;6.900;2022-10-17T03:10:22;17.50;99.90
47604;DHT22;33326;51.116;6.900;2022-10-17T03:15:25;17.50;99.90
47604;DHT22;33326;51.116;6.900;2022-10-17T03:20:28;17.50;99.90
47604;DHT22;33326;51.116;6.900;2022-10-17T03:25:30;17.50;99.90
47604;DHT22;33326;51.116;6.900;2022-10-17T03:30:45;17.60;99.90
47604;DHT22;33326;51.116;6.900;2022-10-17T03:41:43;17.60;99.90
47604;DHT22;33326;51.116;6.900;2022-10-17T03:47:41;17.60;99.90
47604;DHT22;33326;51.116;6.900;2022-10-17T03:53:20;17.70;99.90
47604;DHT22;33326;51.116;6.900;2022-10-17T03:58:27;17.60;99.90
47604;DHT22;33326;51.116;6.900;2022-10-17T04:03:30;17.60;99.90
47604;DHT22;33326;51.116;6.900;2022-10-17T04:08:34;17.60;99.90
47604;DHT22;33326;51.116;6.900;2022-10-17T04:13:41;17.70;99.90
47604;DHT22;33326;51.116;6.900;2022-10-17T04:18:44;17.70;99.90
47604;DHT22;33326;51.116;6.900;2022-10-17T04:23:54;17.70;99.90
47604;DHT22;33326;51.116;6.900;2022-10-17T04:29:11;17.60;99.90
47604;DHT22;33326;51.116;6.900;2022-10-17T04:34:15;17.60;99.90
47604;DHT22;33326;51.116;6.900;2022-10-17T04:39:19;17.60;99.90
47604;DHT22;33326;51.116;6.900;2022-10-17T04:44:21;17.70;99.90
47604;DHT22;33326;51.116;6.900;2022-10-17T04:49:26;17.60;99.90
47604;DHT22;33326;51.116;6.900;2022-10-17T04:54:35;17.60;99.90
47604;DHT22;33326;51.116;6.900;2022-10-17T04:59:42;17.60;99.90
47604;DHT22;33326;51.116;6.900;2022-10-17T05:04:54;17.60;99.90
47604;DHT22;33326;51.116;6.900;2022-10-17T05:09:58;17.60;99.90
47604;DHT22;33326;51.116;6.900;2022-10-17T05:15:00;17.60;99.90
47604;DHT22;33326;51.116;6.900;2022-10-17T05:20:05;17.60;99.90
47604;DHT22;33326;51.116;6.900;2022-10-17T05:25:10;17.60;99.90
47604;DHT22;33326;51.116;6.900;2022-10-17T05:30:12;17.70;99.90
47604;DHT22;33326;51.116;6.900;2022-10-17T05:35:17;17.60;99.90
47604;DHT22;33326;51.116;6.900;2022-10-17T05:40:22;17.70;99.90
47604;DHT22;33326;51.116;6.900;2022-10-17T05:45:27;17.70;99.90
47604;DHT22;33326;51.116;6.900;2022-10-17T05:50:30;17.70;99.90
47604;DHT22;33326;51.116;6.900;2022-10-17T05:55:42;17.70;99.90
47604;DHT22;33326;51.116;6.900;2022-10-17T06:00:44;17.70;99.90
47604;DHT22;33326;51.116;6.900;2022-10-17T06:05:46;17.60;99.90
47604;DHT22;33326;51.116;6.900;2022-10-17T06:10:49;17.60;99.90
47604;DHT22;33326;51.116;6.900;2022-10-17T06:15:52;17.60;99.90
47604;DHT22;33326;51.116;6.900;2022-10-17T06:20:54;17.70;99.90
47604;DHT22;33326;51.116;6.900;2022-10-17T06:26:05;17.60;99.90
47604;DHT22;33326;51.116;6.900;2022-10-17T06:31:09;17.60;99.90
47604;DHT22;33326;51.116;6.900;2022-10-17T06:36:13;17.60;99.90
47604;DHT22;33326;51.116;6.900;2022-10-17T06:41:19;17.70;99.90
47604;DHT22;33326;51.116;6.900;2022-10-17T06:46:20;17.80;99.90
47604;DHT22;33326;51.116;6.900;2022-10-17T06:51:30;17.80;99.90
47604;DHT22;33326;51.116;6.900;2022-10-17T06:56:34;17.80;99.90
47604;DHT22;33326;51.116;6.900;2022-10-17T07:02:03;17.80;99.90
47604;DHT22;33326;51.116;6.900;2022-10-17T07:07:05;17.80;99.90
47604;DHT22;33326;51.116;6.900;2022-10-17T07:12:10;17.90;99.90
47604;DHT22;33326;51.116;6.900;2022-10-17T07:17:16;18.00;99.90
47604;DHT22;33326;51.116;6.900;2022-10-17T07:22:20;18.10;99.90
47604;DHT22;33326;51.116;6.900;2022-10-17T07:27:26;18.20;99.90
47604;DHT22;33326;51.116;6.900;2022-10-17T07:32:28;18.30;99.90
47604;DHT22;33326;51.116;6.900;2022-10-17T07:37:30;18.30;99.90
47604;DHT22;33326;51.116;6.900;2022-10-17T07:42:36;18.30;99.90
47604;DHT22;33326;51.116;6.900;2022-10-17T07:47:38;18.40;99.90
47604;DHT22;33326;51.116;6.900;2022-10-17T07:52:42;18.50;99.90
47604;DHT22;33326;51.116;6.900;2022-10-17T07:57:45;18.60;99.90
47604;DHT22;33326;51.116;6.900;2022-10-17T08:02:47;18.70;99.90
47604;DHT22;33326;51.116;6.900;2022-10-17T08:07:49;18.70;99.90
47604;DHT22;33326;51.116;6.900;2022-10-17T08:12:52;18.90;99.90
47604;DHT22;33326;51.116;6.900;2022-10-17T08:17:54;19.00;99.90
47604;DHT22;33326;51.116;6.900;2022-10-17T08:22:56;19.10;99.90
47604;DHT22;33326;51.116;6.900;2022-10-17T08:27:59;19.20;99.90
47604;DHT22;33326;51.116;6.900;2022-10-17T08:33:01;19.40;99.90
47604;DHT22;33326;51.116;6.900;2022-10-17T08:38:03;19.60;99.90
47604;DHT22;33326;51.116;6.900;2022-10-17T08:43:20;19.70;99.90
47604;DHT22;33326;51.116;6.900;2022-10-17T08:48:27;19.90;99.90
47604;DHT22;33326;51.116;6.900;2022-10-17T08:53:33;20.00;99.90
47604;DHT22;33326;51.116;6.900;2022-10-17T08:58:37;20.10;99.90
47604;DHT22;33326;51.116;6.900;2022-10-17T09:03:51;20.10;99.90
47604;DHT22;33326;51.116;6.900;2022-10-17T09:09:02;20.20;99.90
47604;DHT22;33326;51.116;6.900;2022-10-17T09:14:23;20.20;99.90
47604;DHT22;33326;51.116;6.900;2022-10-17T09:19:31;20.20;99.90
47604;DHT22;33326;51.116;6.900;2022-10-17T09:24:39;20.40;99.90
47604;DHT22;33326;51.116;6.900;2022-10-17T09:29:45;20.50;99.90
47604;DHT22;33326;51.116;6.900;2022-10-17T09:34:50;20.60;99.90
47604;DHT22;33326;51.116;6.900;2022-10-17T09:39:52;20.70;99.90
47604;DHT22;33326;51.116;6.900;2022-10-17T09:45:02;20.70;99.90
47604;DHT22;33326;51.116;6.900;2022-10-17T09:50:13;20.70;99.90
47604;DHT22;33326;51.116;6.900;2022-10-17T09:55:21;20.70;99.90
47604;DHT22;33326;51.116;6.900;2022-10-17T10:00:29;20.70;99.90
47604;DHT22;33326;51.116;6.900;2022-10-17T10:05:31;20.60;99.90
47604;DHT22;33326;51.116;6.900;2022-10-17T10:10:33;20.60;99.90
47604;DHT22;33326;51.116;6.900;2022-10-17T10:15:38;20.60;99.90
47604;DHT22;33326;51.116;6.900;2022-10-17T10:20:40;20.60;99.90
47604;DHT22;33326;51.116;6.900;2022-10-17T10:25:51;20.60;99.90
47604;DHT22;33326;51.116;6.900;2022-10-17T10:31:01;20.70;99.90
47604;DHT22;33326;51.116;6.900;2022-10-17T10:36:09;20.70;99.90
47604;DHT22;33326;51.116;6.900;2022-10-17T10:41:11;20.70;99.90
47604;DHT22;33326;51.116;6.900;2022-10-17T10:46:19;20.80;99.90
47604;DHT22;33326;51.116;6.900;2022-10-17T10:51:26;20.70;99.90
47604;DHT22;33326;51.116;6.900;2022-10-17T10:56:33;20.80;99.90
47604;DHT22;33326;51.116;6.900;2022-10-17T11:01:59;20.80;99.90
47604;DHT22;33326;51.116;6.900;2022-10-17T11:07:07;20.90;99.90
47604;DHT22;33326;51.116;6.900;2022-10-17T11:12:13;20.90;99.90
47604;DHT22;33326;51.116;6.900;2022-10-17T11:17:29;20.80;99.90
47604;DHT22;33326;51.116;6.900;2022-10-17T11:22:37;20.90;99.90
47604;DHT22;33326;51.116;6.900;2022-10-17T11:27:40;20.90;99.90
47604;DHT22;33326;51.116;6.900;2022-10-17T11:32:47;20.90;99.90
47604;DHT22;33326;51.116;6.900;2022-10-17T11:37:56;20.90;99.90
47604;DHT22;33326;51.116;6.900;2022-10-17T11:43:02;20.90;99.90
47604;DHT22;33326;51.116;6.900;2022-10-17T11:48:12;20.90;99.90
47604;DHT22;33326;51.116;6.900;2022-10-17T11:53:18;21.00;99.90
47604;DHT22;33326;51.116;6.900;2022-10-17T11:58:31;21.00;99.90
47604;DHT22;33326;51.116;6.900;2022-10-17T12:03:51;21.10;99.90
47604;DHT22;33326;51.116;6.900;2022-10-17T12:08:59;21.10;99.90
47604;DHT22;33326;51.116;6.900;2022-10-17T12:14:35;21.10;99.90
47604;DHT22;33326;51.116;6.900;2022-10-17T12:19:37;21.20;99.90
47604;DHT22;33326;51.116;6.900;2022-10-17T12:24:41;21.10;99.90
47604;DHT22;33326;51.116;6.900;2022-10-17T12:29:44;21.10;99.90
47604;DHT22;33326;51.116;6.900;2022-10-17T12:34:51;21.10;99.90
47604;DHT22;33326;51.116;6.900;2022-10-17T12:39:55;21.20;99.90
47604;DHT22;33326;51.116;6.900;2022-10-17T12:44:59;21.10;99.90
47604;DHT22;33326;51.116;6.900;2022-10-17T12:50:01;21.10;99.90
47604;DHT22;33326;51.116;6.900;2022-10-17T12:55:09;21.20;99.90
47604;DHT22;33326;51.116;6.900;2022-10-17T13:00:15;21.10;99.90
47604;DHT22;33326;51.116;6.900;2022-10-17T13:05:24;21.10;99.90
47604;DHT22;33326;51.116;6.900;2022-10-17T13:10:30;21.00;99.90
47604;DHT22;33326;51.116;6.900;2022-10-17T13:15:34;21.00;99.90
47604;DHT22;33326;51.116;6.900;2022-10-17T13:20:37;21.00;99.90
47604;DHT22;33326;51.116;6.900;2022-10-17T13:25:39;21.00;99.90
47604;DHT22;33326;51.116;6.900;2022-10-17T13:30:45;21.00;99.90
47604;DHT22;33326;51.116;6.900;2022-10-17T13:35:47;21.00;99.90
47604;DHT22;33326;51.116;6.900;2022-10-17T13:40:49;21.00;99.90
47604;DHT22;33326;51.116;6.900;2022-10-17T13:45:55;21.00;99.90
47604;DHT22;33326;51.116;6.900;2022-10-17T13:51:02;21.10;99.90
47604;DHT22;33326;51.116;6.900;2022-10-17T13:56:16;21.00;99.90
47604;DHT22;33326;51.116;6.900;2022-10-17T14:01:20;21.10;99.90
47604;DHT22;33326;51.116;6.900;2022-10-17T14:06:23;21.10;99.90
47604;DHT22;33326;51.116;6.900;2022-10-17T14:11:30;21.20;99.90
47604;DHT22;33326;51.116;6.900;2022-10-17T14:16:37;21.20;99.90
47604;DHT22;33326;51.116;6.900;2022-10-17T14:21:39;21.30;99.90
47604;DHT22;33326;51.116;6.900;2022-10-17T14:26:49;21.30;99.90
47604;DHT22;33326;51.116;6.900;2022-10-17T14:32:04;21.30;99.90
47604;DHT22;33326;51.116;6.900;2022-10-17T14:37:09;21.20;99.90
47604;DHT22;33326;51.116;6.900;2022-10-17T14:42:17;21.20;99.90
47604;DHT22;33326;51.116;6.900;2022-10-17T14:47:24;21.10;99.90
47604;DHT22;33326;51.116;6.900;2022-10-17T14:52:29;21.00;99.90
47604;DHT22;33326;51.116;6.900;2022-10-17T14:57:41;21.00;99.90
47604;DHT22;33326;51.116;6.900;2022-10-17T15:02:46;21.10;99.90
47604;DHT22;33326;51.116;6.900;2022-10-17T15:07:48;21.00;99.90
47604;DHT22;33326;51.116;6.900;2022-10-17T15:12:50;20.90;99.90
47604;DHT22;33326;51.116;6.900;2022-10-17T15:17:53;20.90;99.90
47604;DHT22;33326;51.116;6.900;2022-10-17T15:22:57;20.80;99.90
47604;DHT22;33326;51.116;6.900;2022-10-17T15:27:59;20.70;99.90
47604;DHT22;33326;51.116;6.900;2022-10-17T15:33:02;20.70;99.90
47604;DHT22;33326;51.116;6.900;2022-10-17T15:38:06;20.60;99.90
47604;DHT22;33326;51.116;6.900;2022-10-17T15:43:09;20.50;99.90
47604;DHT22;33326;51.116;6.900;2022-10-17T15:48:18;20.40;99.90
47604;DHT22;33326;51.116;6.900;2022-10-17T15:53:24;20.30;99.90
47604;DHT22;33326;51.116;6.900;2022-10-17T15:58:30;20.20;99.90
47604;DHT22;33326;51.116;6.900;2022-10-17T16:03:35;20.20;99.90
47604;DHT22;33326;51.116;6.900;2022-10-17T16:08:38;20.20;99.90
47604;DHT22;33326;51.116;6.900;2022-10-17T16:13:40;20.10;99.90
47604;DHT22;33326;51.116;6.900;2022-10-17T16:18:43;19.90;99.90
47604;DHT22;33326;51.116;6.900;2022-10-17T16:23:45;19.70;99.90
47604;DHT22;33326;51.116;6.900;2022-10-17T16:28:47;19.60;99.90
47604;DHT22;33326;51.116;6.900;2022-10-17T16:33:52;19.50;99.90
47604;DHT22;33326;51.116;6.900;2022-10-17T16:38:54;19.40;99.90
47604;DHT22;33326;51.116;6.900;2022-10-17T16:43:57;19.40;99.90
47604;DHT22;33326;51.116;6.900;2022-10-17T16:49:02;19.40;99.90
47604;DHT22;33326;51.116;6.900;2022-10-17T16:54:04;19.40;99.90
47604;DHT22;33326;51.116;6.900;2022-10-17T16:59:08;19.40;99.90
47604;DHT22;33326;51.116;6.900;2022-10-17T17:04:11;19.30;99.90
47604;DHT22;33326;51.116;6.900;2022-10-17T17:09:13;19.20;99.90
47604;DHT22;33326;51.116;6.900;2022-10-17T17:14:15;19.20;99.90
47604;DHT22;33326;51.116;6.900;2022-10-17T17:19:18;19.00;99.90
47604;DHT22;33326;51.116;6.900;2022-10-17T17:24:20;19.00;99.90
47604;DHT22;33326;51.116;6.900;2022-10-17T17:29:23;18.90;99.90
47604;DHT22;33326;51.116;6.900;2022-10-17T17:34:27;18.90;99.90
47604;DHT22;33326;51.116;6.900;2022-10-17T17:39:28;18.90;99.90
47604;DHT22;33326;51.116;6.900;2022-10-17T17:44:30;18.90;99.90
47604;DHT22;33326;51.116;6.900;2022-10-17T17:49:34;18.80;99.90
47604;DHT22;33326;51.116;6.900;2022-10-17T17:54:35;18.60;99.90
47604;DHT22;33326;51.116;6.900;2022-10-17T17:59:37;18.60;99.90
47604;DHT22;33326;51.116;6.900;2022-10-17T18:04:42;18.60;99.90
47604;DHT22;33326;51.116;6.900;2022-10-17T18:09:43;18.70;99.90
47604;DHT22;33326;51.116;6.900;2022-10-17T18:14:46;18.70;99.90
47604;DHT22;33326;51.116;6.900;2022-10-17T18:19:50;18.70;99.90
47604;DHT22;33326;51.116;6.900;2022-10-17T18:24:51;18.70;99.90
47604;DHT22;33326;51.116;6.900;2022-10-17T18:29:53;18.80;99.90
47604;DHT22;33326;51.116;6.900;2022-10-17T18:34:57;18.80;99.90
47604;DHT22;33326;51.116;6.900;2022-10-17T18:39:59;18.70;99.90
47604;DHT22;33326;51.116;6.900;2022-10-17T18:45:03;18.70;99.90
47604;DHT22;33326;51.116;6.900;2022-10-17T18:50:07;18.70;99.90
47604;DHT22;33326;51.116;6.900;2022-10-17T18:55:09;18.70;99.90
47604;DHT22;33326;51.116;6.900;2022-10-17T19:00:11;18.60;99.90
47604;DHT22;33326;51.116;6.900;2022-10-17T19:05:15;18.60;99.90
47604;DHT22;33326;51.116;6.900;2022-10-17T19:10:16;18.60;99.90
47604;DHT22;33326;51.116;6.900;2022-10-17T19:15:18;18.50;99.90
47604;DHT22;33326;51.116;6.900;2022-10-17T19:20:21;18.50;99.90
47604;DHT22;33326;51.116;6.900;2022-10-17T19:25:23;18.50;99.90
47604;DHT22;33326;51.116;6.900;2022-10-17T19:30:25;18.50;99.90
47604;DHT22;33326;51.116;6.900;2022-10-17T19:35:28;18.40;99.90
47604;DHT22;33326;51.116;6.900;2022-10-17T19:40:30;18.40;99.90
47604;DHT22;33326;51.116;6.900;2022-10-17T19:45:32;18.40;99.90
47604;DHT22;33326;51.116;6.900;2022-10-17T19:50:35;18.30;99.90
47604;DHT22;33326;51.116;6.900;2022-10-17T19:55:37;18.40;99.90
47604;DHT22;33326;51.116;6.900;2022-10-17T20:00:45;18.30;99.90
47604;DHT22;33326;51.116;6.900;2022-10-17T20:05:48;18.30;99.90
47604;DHT22;33326;51.116;6.900;2022-10-17T20:10:50;18.30;99.90
47604;DHT22;33326;51.116;6.900;2022-10-17T20:15:53;18.30;99.90
47604;DHT22;33326;51.116;6.900;2022-10-17T20:21:02;18.20;99.90
47604;DHT22;33326;51.116;6.900;2022-10-17T20:26:06;18.20;99.90
47604;DHT22;33326;51.116;6.900;2022-10-17T20:31:09;18.20;99.90
47604;DHT22;33326;51.116;6.900;2022-10-17T20:36:13;18.20;99.90
47604;DHT22;33326;51.116;6.900;2022-10-17T20:41:16;18.10;99.90
47604;DHT22;33326;51.116;6.900;2022-10-17T20:46:18;18.00;99.90
47604;DHT22;33326;51.116;6.900;2022-10-17T20:51:22;17.90;99.90
47604;DHT22;33326;51.116;6.900;2022-10-17T20:56:28;17.90;99.90
47604;DHT22;33326;51.116;6.900;2022-10-17T21:01:32;18.00;99.90
47604;DHT22;33326;51.116;6.900;2022-10-17T21:06:35;18.00;99.90
47604;DHT22;33326;51.116;6.900;2022-10-17T21:11:38;18.00;99.90
47604;DHT22;33326;51.116;6.900;2022-10-17T21:16:40;17.90;99.90
47604;DHT22;33326;51.116;6.900;2022-10-17T21:21:44;17.90;99.90
47604;DHT22;33326;51.116;6.900;2022-10-17T21:26:47;17.90;99.90
47604;DHT22;33326;51.116;6.900;2022-10-17T21:31:54;17.80;99.90
47604;DHT22;33326;51.116;6.900;2022-10-17T21:36:58;17.80;99.90
47604;DHT22;33326;51.116;6.900;2022-10-17T21:42:00;17.80;99.90
47604;DHT22;33326;51.116;6.900;2022-10-17T21:47:02;17.80;99.90
47604;DHT22;33326;51.116;6.900;2022-10-17T21:52:05;17.70;99.90
47604;DHT22;33326;51.116;6.900;2022-10-17T21:57:07;17.80;99.90
47604;DHT22;33326;51.116;6.900;2022-10-17T22:02:08;17.70;99.90
47604;DHT22;33326;51.116;6.900;2022-10-17T22:07:12;17.60;99.90
47604;DHT22;33326;51.116;6.900;2022-10-17T22:12:13;17.70;99.90
47604;DHT22;33326;51.116;6.900;2022-10-17T22:17:15;17.60;99.90
47604;DHT22;33326;51.116;6.900;2022-10-17T22:22:18;17.60;99.90
47604;DHT22;33326;51.116;6.900;2022-10-17T22:27:20;17.60;99.90
47604;DHT22;33326;51.116;6.900;2022-10-17T22:32:22;17.50;99.90
47604;DHT22;33326;51.116;6.900;2022-10-17T22:37:25;17.60;99.90
47604;DHT22;33326;51.116;6.900;2022-10-17T22:42:27;17.60;99.90
47604;DHT22;33326;51.116;6.900;2022-10-17T22:47:30;17.50;99.90
47604;DHT22;33326;51.116;6.900;2022-10-17T22:52:34;17.60;99.90
47604;DHT22;33326;51.116;6.900;2022-10-17T22:57:35;17.50;99.90
47604;DHT22;33326;51.116;6.900;2022-10-17T23:02:38;17.50;99.90
47604;DHT22;33326;51.116;6.900;2022-10-17T23:07:41;17.40;99.90
47604;DHT22;33326;51.116;6.900;2022-10-17T23:12:43;17.50;99.90
47604;DHT22;33326;51.116;6.900;2022-10-17T23:17:45;17.40;99.90
47604;DHT22;33326;51.116;6.900;2022-10-17T23:22:48;17.40;99.90
47604;DHT22;33326;51.116;6.900;2022-10-17T23:27:50;17.40;99.90
47604;DHT22;33326;51.116;6.900;2022-10-17T23:32:52;17.30;99.90
47604;DHT22;33326;51.116;6.900;2022-10-17T23:37:55;17.30;99.90
47604;DHT22;33326;51.116;6.900;2022-10-17T23:42:57;17.30;99.90
47604;DHT22;33326;51.116;6.900;2022-10-17T23:47:59;17.30;99.90
47604;DHT22;33326;51.116;6.900;2022-10-17T23:53:02;17.30;99.90
47604;DHT22;33326;51.116;6.900;2022-10-17T23:58:04;17.30;99.90
